sensor_id;sensor_type;location;lat;lon;timestamp;temperature;humidity
23683;DHT22;24897;53.514;10.482;2023-07-20T00:00:48;14.00;99.90
23683;DHT22;24897;53.514;10.482;2023-07-20T00:03:34;14.00;99.90
23683;DHT22;24897;53.514;10.482;2023-07-20T00:06:18;14.10;99.90
23683;DHT22;24897;53.514;10.482;2023-07-20T00:09:02;14.10;99.90
23683;DHT22;24897;53.514;10.482;2023-07-20T00:11:50;14.20;99.90
23683;DHT22;24897;53.514;10.482;2023-07-20T00:14:35;14.20;99.90
23683;DHT22;24897;53.514;10.482;2023-07-20T00:17:19;14.00;99.90
23683;DHT22;24897;53.514;10.482;2023-07-20T00:20:05;14.20;99.90
23683;DHT22;24897;53.514;10.482;2023-07-20T00:22:49;14.20;99.90
23683;DHT22;24897;53.514;10.482;2023-07-20T00:25:35;14.20;99.90
23683;DHT22;24897;53.514;10.482;2023-07-20T00:28:19;14.20;99.90
23683;DHT22;24897;53.514;10.482;2023-07-20T00:31:04;14.20;99.90
23683;DHT22;24897;53.514;10.482;2023-07-20T00:33:48;14.20;99.90
23683;DHT22;24897;53.514;10.482;2023-07-20T00:36:32;14.20;99.90
23683;DHT22;24897;53.514;10.482;2023-07-20T00:39:16;14.20;99.90
23683;DHT22;24897;53.514;10.482;2023-07-20T00:42:01;13.20;99.90
23683;DHT22;24897;53.514;10.482;2023-07-20T00:44:45;15.10;99.90
23683;DHT22;24897;53.514;10.482;2023-07-20T00:47:31;14.30;99.90
23683;DHT22;24897;53.514;10.482;2023-07-20T00:50:16;14.40;99.90
23683;DHT22;24897;53.514;10.482;2023-07-20T00:53:02;14.00;99.90
23683;DHT22;24897;53.514;10.482;2023-07-20T00:55:49;14.30;99.90
23683;DHT22;24897;53.514;10.482;2023-07-20T00:58:33;14.30;99.90
23683;DHT22;24897;53.514;10.482;2023-07-20T01:01:17;14.30;99.90
23683;DHT22;24897;53.514;10.482;2023-07-20T01:04:01;14.30;99.90
23683;DHT22;24897;53.514;10.482;2023-07-20T01:13:00;14.30;99.90
23683;DHT22;24897;53.514;10.482;2023-07-20T01:15:56;14.20;99.90
23683;DHT22;24897;53.514;10.482;2023-07-20T01:18:42;14.20;99.90
23683;DHT22;24897;53.514;10.482;2023-07-20T01:21:55;14.20;99.90
23683;DHT22;24897;53.514;10.482;2023-07-20T01:25:04;14.10;99.90
23683;DHT22;24897;53.514;10.482;2023-07-20T01:31:25;14.30;99.90
23683;DHT22;24897;53.514;10.482;2023-07-20T01:34:12;14.20;99.90
23683;DHT22;24897;53.514;10.482;2023-07-20T01:36:59;14.30;99.90
23683;DHT22;24897;53.514;10.482;2023-07-20T01:39:44;14.30;99.90
23683;DHT22;24897;53.514;10.482;2023-07-20T01:42:29;14.30;99.90
23683;DHT22;24897;53.514;10.482;2023-07-20T01:45:14;14.30;99.90
23683;DHT22;24897;53.514;10.482;2023-07-20T01:47:58;14.30;99.90
23683;DHT22;24897;53.514;10.482;2023-07-20T01:50:43;14.30;99.90
23683;DHT22;24897;53.514;10.482;2023-07-20T01:53:27;14.30;99.90
23683;DHT22;24897;53.514;10.482;2023-07-20T01:56:11;14.30;99.90
23683;DHT22;24897;53.514;10.482;2023-07-20T01:58:56;14.30;99.90
23683;DHT22;24897;53.514;10.482;2023-07-20T02:01:40;14.40;99.90
23683;DHT22;24897;53.514;10.482;2023-07-20T02:04:24;14.40;99.90
23683;DHT22;24897;53.514;10.482;2023-07-20T02:07:08;14.50;99.90
23683;DHT22;24897;53.514;10.482;2023-07-20T02:09:52;14.50;99.90
23683;DHT22;24897;53.514;10.482;2023-07-20T02:12:36;14.40;99.90
23683;DHT22;24897;53.514;10.482;2023-07-20T02:15:21;14.40;99.90
23683;DHT22;24897;53.514;10.482;2023-07-20T02:18:06;14.40;99.90
23683;DHT22;24897;53.514;10.482;2023-07-20T02:20:53;14.50;99.90
23683;DHT22;24897;53.514;10.482;2023-07-20T02:23:37;14.50;99.90
23683;DHT22;24897;53.514;10.482;2023-07-20T02:26:21;14.50;99.90
23683;DHT22;24897;53.514;10.482;2023-07-20T02:29:05;14.50;99.90
23683;DHT22;24897;53.514;10.482;2023-07-20T02:31:49;14.50;99.90
23683;DHT22;24897;53.514;10.482;2023-07-20T02:34:34;14.50;99.90
23683;DHT22;24897;53.514;10.482;2023-07-20T02:37:18;14.50;99.90
23683;DHT22;24897;53.514;10.482;2023-07-20T02:40:02;14.80;99.90
23683;DHT22;24897;53.514;10.482;2023-07-20T02:42:48;14.50;99.90
23683;DHT22;24897;53.514;10.482;2023-07-20T02:45:32;14.50;99.90
23683;DHT22;24897;53.514;10.482;2023-07-20T02:48:16;14.40;99.90
23683;DHT22;24897;53.514;10.482;2023-07-20T02:51:00;14.40;99.90
23683;DHT22;24897;53.514;10.482;2023-07-20T02:53:44;14.40;99.90
23683;DHT22;24897;53.514;10.482;2023-07-20T02:56:28;14.40;99.90
23683;DHT22;24897;53.514;10.482;2023-07-20T02:59:12;14.40;99.90
23683;DHT22;24897;53.514;10.482;2023-07-20T03:01:56;13.90;99.90
23683;DHT22;24897;53.514;10.482;2023-07-20T03:04:41;14.40;99.90
23683;DHT22;24897;53.514;10.482;2023-07-20T03:07:27;14.40;99.90
23683;DHT22;24897;53.514;10.482;2023-07-20T03:10:12;14.40;99.90
23683;DHT22;24897;53.514;10.482;2023-07-20T03:12:57;14.40;99.90
23683;DHT22;24897;53.514;10.482;2023-07-20T03:15:41;14.40;99.90
23683;DHT22;24897;53.514;10.482;2023-07-20T03:18:25;14.40;99.90
23683;DHT22;24897;53.514;10.482;2023-07-20T03:21:10;14.40;99.90
23683;DHT22;24897;53.514;10.482;2023-07-20T03:23:58;14.40;99.90
23683;DHT22;24897;53.514;10.482;2023-07-20T03:26:42;14.40;99.90
23683;DHT22;24897;53.514;10.482;2023-07-20T03:29:26;14.40;99.90
23683;DHT22;24897;53.514;10.482;2023-07-20T03:32:10;14.40;99.90
23683;DHT22;24897;53.514;10.482;2023-07-20T03:34:54;14.50;99.90
23683;DHT22;24897;53.514;10.482;2023-07-20T03:37:38;14.50;99.90
23683;DHT22;24897;53.514;10.482;2023-07-20T03:40:23;14.30;99.90
23683;DHT22;24897;53.514;10.482;2023-07-20T03:43:06;14.40;99.90
23683;DHT22;24897;53.514;10.482;2023-07-20T03:45:52;14.50;99.90
23683;DHT22;24897;53.514;10.482;2023-07-20T03:48:37;14.50;99.90
23683;DHT22;24897;53.514;10.482;2023-07-20T03:51:21;14.40;99.90
23683;DHT22;24897;53.514;10.482;2023-07-20T03:54:05;14.40;99.90
23683;DHT22;24897;53.514;10.482;2023-07-20T03:56:49;14.50;99.90
23683;DHT22;24897;53.514;10.482;2023-07-20T03:59:33;14.60;99.90
23683;DHT22;24897;53.514;10.482;2023-07-20T04:02:18;14.60;99.90
23683;DHT22;24897;53.514;10.482;2023-07-20T04:05:02;14.60;99.90
23683;DHT22;24897;53.514;10.482;2023-07-20T04:07:46;14.60;99.90
23683;DHT22;24897;53.514;10.482;2023-07-20T04:10:30;14.60;99.90
23683;DHT22;24897;53.514;10.482;2023-07-20T04:13:14;14.60;99.90
23683;DHT22;24897;53.514;10.482;2023-07-20T04:15:59;14.60;99.90
23683;DHT22;24897;53.514;10.482;2023-07-20T04:18:44;14.60;99.90
23683;DHT22;24897;53.514;10.482;2023-07-20T04:21:28;14.70;99.90
23683;DHT22;24897;53.514;10.482;2023-07-20T04:24:12;14.70;99.90
23683;DHT22;24897;53.514;10.482;2023-07-20T04:26:56;14.70;99.90
23683;DHT22;24897;53.514;10.482;2023-07-20T04:29:40;14.70;99.90
23683;DHT22;24897;53.514;10.482;2023-07-20T04:32:25;14.70;99.90
23683;DHT22;24897;53.514;10.482;2023-07-20T04:35:10;14.70;99.90
23683;DHT22;24897;53.514;10.482;2023-07-20T04:37:54;14.70;99.90
23683;DHT22;24897;53.514;10.482;2023-07-20T04:40:38;14.80;99.90
23683;DHT22;24897;53.514;10.482;2023-07-20T04:43:22;14.80;99.90
23683;DHT22;24897;53.514;10.482;2023-07-20T04:46:06;14.50;99.90
23683;DHT22;24897;53.514;10.482;2023-07-20T04:48:51;14.80;99.90
23683;DHT22;24897;53.514;10.482;2023-07-20T04:51:34;14.90;99.90
23683;DHT22;24897;53.514;10.482;2023-07-20T04:54:19;14.90;99.90
23683;DHT22;24897;53.514;10.482;2023-07-20T04:57:05;15.00;99.90
23683;DHT22;24897;53.514;10.482;2023-07-20T04:59:49;15.00;99.90
23683;DHT22;24897;53.514;10.482;2023-07-20T05:02:33;15.00;99.90
23683;DHT22;24897;53.514;10.482;2023-07-20T05:05:17;15.10;99.90
23683;DHT22;24897;53.514;10.482;2023-07-20T05:08:01;15.10;99.90
23683;DHT22;24897;53.514;10.482;2023-07-20T05:10:45;15.20;99.90
23683;DHT22;24897;53.514;10.482;2023-07-20T05:13:29;15.20;99.90
23683;DHT22;24897;53.514;10.482;2023-07-20T05:16:13;15.40;99.90
23683;DHT22;24897;53.514;10.482;2023-07-20T05:18:57;15.30;99.90
23683;DHT22;24897;53.514;10.482;2023-07-20T05:21:41;15.20;99.90
23683;DHT22;24897;53.514;10.482;2023-07-20T05:24:26;15.20;99.90
23683;DHT22;24897;53.514;10.482;2023-07-20T05:27:13;15.20;99.90
23683;DHT22;24897;53.514;10.482;2023-07-20T05:29:57;15.20;99.90
23683;DHT22;24897;53.514;10.482;2023-07-20T05:32:42;15.20;99.90
23683;DHT22;24897;53.514;10.482;2023-07-20T05:35:29;15.20;99.90
23683;DHT22;24897;53.514;10.482;2023-07-20T05:38:13;15.30;99.90
23683;DHT22;24897;53.514;10.482;2023-07-20T05:41:00;15.40;99.90
23683;DHT22;24897;53.514;10.482;2023-07-20T05:43:47;15.40;99.90
23683;DHT22;24897;53.514;10.482;2023-07-20T05:46:31;15.60;99.90
23683;DHT22;24897;53.514;10.482;2023-07-20T05:49:15;15.50;99.90
23683;DHT22;24897;53.514;10.482;2023-07-20T05:52:00;15.50;99.90
23683;DHT22;24897;53.514;10.482;2023-07-20T05:54:45;15.80;99.90
23683;DHT22;24897;53.514;10.482;2023-07-20T05:57:29;16.10;99.90
23683;DHT22;24897;53.514;10.482;2023-07-20T06:00:13;16.20;99.90
23683;DHT22;24897;53.514;10.482;2023-07-20T06:02:57;16.40;99.90
23683;DHT22;24897;53.514;10.482;2023-07-20T06:05:41;16.60;99.90
23683;DHT22;24897;53.514;10.482;2023-07-20T06:08:26;17.60;99.90
23683;DHT22;24897;53.514;10.482;2023-07-20T06:11:10;18.50;99.90
23683;DHT22;24897;53.514;10.482;2023-07-20T06:13:54;18.30;99.90
23683;DHT22;24897;53.514;10.482;2023-07-20T06:16:38;17.80;99.90
23683;DHT22;24897;53.514;10.482;2023-07-20T06:19:22;17.50;99.90
23683;DHT22;24897;53.514;10.482;2023-07-20T06:22:06;17.80;99.90
23683;DHT22;24897;53.514;10.482;2023-07-20T06:24:50;19.60;99.90
23683;DHT22;24897;53.514;10.482;2023-07-20T06:27:34;19.50;99.90
23683;DHT22;24897;53.514;10.482;2023-07-20T06:30:19;20.00;99.90
23683;DHT22;24897;53.514;10.482;2023-07-20T06:33:03;21.00;99.90
23683;DHT22;24897;53.514;10.482;2023-07-20T06:35:47;21.70;99.90
23683;DHT22;24897;53.514;10.482;2023-07-20T06:38:31;21.90;99.90
23683;DHT22;24897;53.514;10.482;2023-07-20T06:41:15;21.90;99.90
23683;DHT22;24897;53.514;10.482;2023-07-20T06:43:59;22.00;99.90
23683;DHT22;24897;53.514;10.482;2023-07-20T06:46:43;22.00;99.90
23683;DHT22;24897;53.514;10.482;2023-07-20T06:49:28;22.50;99.90
23683;DHT22;24897;53.514;10.482;2023-07-20T06:52:12;22.60;99.90
23683;DHT22;24897;53.514;10.482;2023-07-20T06:54:56;22.10;99.90
23683;DHT22;24897;53.514;10.482;2023-07-20T06:57:40;22.20;99.90
23683;DHT22;24897;53.514;10.482;2023-07-20T07:00:24;22.20;99.90
23683;DHT22;24897;53.514;10.482;2023-07-20T07:03:08;22.30;99.90
23683;DHT22;24897;53.514;10.482;2023-07-20T07:05:55;22.40;99.90
23683;DHT22;24897;53.514;10.482;2023-07-20T07:08:40;22.60;99.90
23683;DHT22;24897;53.514;10.482;2023-07-20T07:11:24;22.90;99.90
23683;DHT22;24897;53.514;10.482;2023-07-20T07:14:08;23.10;99.90
23683;DHT22;24897;53.514;10.482;2023-07-20T07:16:52;23.00;99.90
23683;DHT22;24897;53.514;10.482;2023-07-20T07:19:36;23.20;99.90
23683;DHT22;24897;53.514;10.482;2023-07-20T07:22:21;23.20;99.90
23683;DHT22;24897;53.514;10.482;2023-07-20T07:25:06;23.20;99.90
23683;DHT22;24897;53.514;10.482;2023-07-20T07:27:53;22.20;99.90
23683;DHT22;24897;53.514;10.482;2023-07-20T07:30:37;21.30;99.90
23683;DHT22;24897;53.514;10.482;2023-07-20T07:33:22;21.40;99.90
23683;DHT22;24897;53.514;10.482;2023-07-20T07:36:07;20.90;99.90
23683;DHT22;24897;53.514;10.482;2023-07-20T07:38:51;20.10;99.90
23683;DHT22;24897;53.514;10.482;2023-07-20T07:41:35;19.50;99.90
23683;DHT22;24897;53.514;10.482;2023-07-20T07:44:19;18.90;99.90
23683;DHT22;24897;53.514;10.482;2023-07-20T07:47:05;18.60;99.90
23683;DHT22;24897;53.514;10.482;2023-07-20T07:49:49;18.40;99.90
23683;DHT22;24897;53.514;10.482;2023-07-20T07:52:33;18.80;99.90
23683;DHT22;24897;53.514;10.482;2023-07-20T07:55:18;19.30;99.90
23683;DHT22;24897;53.514;10.482;2023-07-20T07:58:02;20.70;99.90
23683;DHT22;24897;53.514;10.482;2023-07-20T08:00:46;21.30;99.90
23683;DHT22;24897;53.514;10.482;2023-07-20T08:03:31;21.40;99.90
23683;DHT22;24897;53.514;10.482;2023-07-20T08:06:16;22.00;99.90
23683;DHT22;24897;53.514;10.482;2023-07-20T08:09:00;21.50;99.90
23683;DHT22;24897;53.514;10.482;2023-07-20T08:11:44;21.30;99.90
23683;DHT22;24897;53.514;10.482;2023-07-20T08:14:28;20.10;99.90
23683;DHT22;24897;53.514;10.482;2023-07-20T08:17:12;19.10;99.90
23683;DHT22;24897;53.514;10.482;2023-07-20T08:19:56;18.60;99.90
23683;DHT22;24897;53.514;10.482;2023-07-20T08:22:40;18.40;99.90
23683;DHT22;24897;53.514;10.482;2023-07-20T08:25:24;18.50;99.90
23683;DHT22;24897;53.514;10.482;2023-07-20T08:28:15;19.10;99.90
23683;DHT22;24897;53.514;10.482;2023-07-20T08:30:59;19.50;99.90
23683;DHT22;24897;53.514;10.482;2023-07-20T08:33:43;19.70;99.90
23683;DHT22;24897;53.514;10.482;2023-07-20T08:36:27;19.70;99.90
23683;DHT22;24897;53.514;10.482;2023-07-20T08:39:12;19.90;99.90
23683;DHT22;24897;53.514;10.482;2023-07-20T08:41:58;19.70;99.90
23683;DHT22;24897;53.514;10.482;2023-07-20T08:44:44;19.40;99.90
23683;DHT22;24897;53.514;10.482;2023-07-20T08:47:29;19.40;99.90
23683;DHT22;24897;53.514;10.482;2023-07-20T08:50:13;19.70;99.90
23683;DHT22;24897;53.514;10.482;2023-07-20T08:52:59;20.20;99.90
23683;DHT22;24897;53.514;10.482;2023-07-20T08:55:49;20.40;99.90
23683;DHT22;24897;53.514;10.482;2023-07-20T08:58:34;20.80;99.90
23683;DHT22;24897;53.514;10.482;2023-07-20T09:01:22;21.10;99.90
23683;DHT22;24897;53.514;10.482;2023-07-20T09:04:07;21.50;99.90
23683;DHT22;24897;53.514;10.482;2023-07-20T09:06:51;22.00;99.90
23683;DHT22;24897;53.514;10.482;2023-07-20T09:09:40;22.40;99.90
23683;DHT22;24897;53.514;10.482;2023-07-20T09:12:25;22.40;99.90
23683;DHT22;24897;53.514;10.482;2023-07-20T09:15:11;22.30;99.90
23683;DHT22;24897;53.514;10.482;2023-07-20T09:17:56;21.90;99.90
23683;DHT22;24897;53.514;10.482;2023-07-20T09:20:40;21.40;99.90
23683;DHT22;24897;53.514;10.482;2023-07-20T09:23:36;21.20;99.90
23683;DHT22;24897;53.514;10.482;2023-07-20T09:26:21;21.50;99.90
23683;DHT22;24897;53.514;10.482;2023-07-20T09:29:07;21.50;99.90
23683;DHT22;24897;53.514;10.482;2023-07-20T09:32:02;21.30;99.90
23683;DHT22;24897;53.514;10.482;2023-07-20T09:34:47;20.90;99.90
23683;DHT22;24897;53.514;10.482;2023-07-20T09:37:33;20.60;99.90
23683;DHT22;24897;53.514;10.482;2023-07-20T09:40:18;20.80;99.90
23683;DHT22;24897;53.514;10.482;2023-07-20T09:43:02;21.30;99.90
23683;DHT22;24897;53.514;10.482;2023-07-20T09:45:49;21.80;99.90
23683;DHT22;24897;53.514;10.482;2023-07-20T09:48:34;21.80;99.90
23683;DHT22;24897;53.514;10.482;2023-07-20T09:51:20;21.60;99.90
23683;DHT22;24897;53.514;10.482;2023-07-20T09:54:06;21.80;99.90
23683;DHT22;24897;53.514;10.482;2023-07-20T09:56:51;22.10;99.90
23683;DHT22;24897;53.514;10.482;2023-07-20T09:59:36;22.40;99.90
23683;DHT22;24897;53.514;10.482;2023-07-20T10:02:25;22.50;99.90
23683;DHT22;24897;53.514;10.482;2023-07-20T10:05:13;22.70;99.90
23683;DHT22;24897;53.514;10.482;2023-07-20T10:07:59;23.00;99.90
23683;DHT22;24897;53.514;10.482;2023-07-20T10:10:47;22.40;99.90
23683;DHT22;24897;53.514;10.482;2023-07-20T10:13:32;21.60;99.90
23683;DHT22;24897;53.514;10.482;2023-07-20T10:16:29;20.80;99.90
23683;DHT22;24897;53.514;10.482;2023-07-20T10:22:26;20.30;99.90
23683;DHT22;24897;53.514;10.482;2023-07-20T10:25:10;20.50;99.90
23683;DHT22;24897;53.514;10.482;2023-07-20T10:27:55;21.10;99.90
23683;DHT22;24897;53.514;10.482;2023-07-20T10:30:41;21.50;99.90
23683;DHT22;24897;53.514;10.482;2023-07-20T10:33:26;21.50;99.90
23683;DHT22;24897;53.514;10.482;2023-07-20T10:36:11;21.30;99.90
23683;DHT22;24897;53.514;10.482;2023-07-20T10:38:57;21.30;99.90
23683;DHT22;24897;53.514;10.482;2023-07-20T10:41:41;21.80;99.90
23683;DHT22;24897;53.514;10.482;2023-07-20T10:44:25;21.70;99.90
23683;DHT22;24897;53.514;10.482;2023-07-20T10:47:10;22.00;99.90
23683;DHT22;24897;53.514;10.482;2023-07-20T10:50:00;21.90;99.90
23683;DHT22;24897;53.514;10.482;2023-07-20T10:53:10;21.90;99.90
23683;DHT22;24897;53.514;10.482;2023-07-20T10:56:22;22.40;99.90
23683;DHT22;24897;53.514;10.482;2023-07-20T11:02:09;22.90;99.90
23683;DHT22;24897;53.514;10.482;2023-07-20T11:04:53;22.90;99.90
23683;DHT22;24897;53.514;10.482;2023-07-20T11:07:38;22.70;99.90
23683;DHT22;24897;53.514;10.482;2023-07-20T11:10:22;22.80;99.90
23683;DHT22;24897;53.514;10.482;2023-07-20T11:13:22;22.70;99.90
23683;DHT22;24897;53.514;10.482;2023-07-20T11:16:06;22.00;99.90
23683;DHT22;24897;53.514;10.482;2023-07-20T11:18:51;21.00;99.90
23683;DHT22;24897;53.514;10.482;2023-07-20T11:21:37;20.30;99.90
23683;DHT22;24897;53.514;10.482;2023-07-20T11:24:23;19.40;99.90
23683;DHT22;24897;53.514;10.482;2023-07-20T11:27:07;19.10;99.90
23683;DHT22;24897;53.514;10.482;2023-07-20T11:29:51;18.80;99.90
23683;DHT22;24897;53.514;10.482;2023-07-20T11:32:35;18.80;99.90
23683;DHT22;24897;53.514;10.482;2023-07-20T11:35:19;18.60;99.90
23683;DHT22;24897;53.514;10.482;2023-07-20T11:38:03;18.80;99.90
23683;DHT22;24897;53.514;10.482;2023-07-20T11:40:47;19.10;99.90
23683;DHT22;24897;53.514;10.482;2023-07-20T11:43:31;19.80;99.90
23683;DHT22;24897;53.514;10.482;2023-07-20T11:46:16;20.40;99.90
23683;DHT22;24897;53.514;10.482;2023-07-20T11:49:00;20.60;99.90
23683;DHT22;24897;53.514;10.482;2023-07-20T11:51:44;20.30;99.90
23683;DHT22;24897;53.514;10.482;2023-07-20T11:54:29;20.00;99.90
23683;DHT22;24897;53.514;10.482;2023-07-20T11:57:17;19.60;99.90
23683;DHT22;24897;53.514;10.482;2023-07-20T12:00:03;19.80;99.90
23683;DHT22;24897;53.514;10.482;2023-07-20T12:02:53;20.10;99.90
23683;DHT22;24897;53.514;10.482;2023-07-20T12:05:41;19.70;99.90
23683;DHT22;24897;53.514;10.482;2023-07-20T12:08:25;19.20;99.90
23683;DHT22;24897;53.514;10.482;2023-07-20T12:11:09;18.90;99.90
23683;DHT22;24897;53.514;10.482;2023-07-20T12:13:58;18.90;99.90
23683;DHT22;24897;53.514;10.482;2023-07-20T12:16:42;19.00;99.90
23683;DHT22;24897;53.514;10.482;2023-07-20T12:19:26;19.10;99.90
23683;DHT22;24897;53.514;10.482;2023-07-20T12:22:11;19.40;99.90
23683;DHT22;24897;53.514;10.482;2023-07-20T12:24:56;20.20;99.90
23683;DHT22;24897;53.514;10.482;2023-07-20T12:27:40;20.50;99.90
23683;DHT22;24897;53.514;10.482;2023-07-20T12:30:25;21.00;99.90
23683;DHT22;24897;53.514;10.482;2023-07-20T12:33:10;21.50;99.90
23683;DHT22;24897;53.514;10.482;2023-07-20T12:35:53;21.90;99.90
23683;DHT22;24897;53.514;10.482;2023-07-20T12:38:40;21.00;99.90
23683;DHT22;24897;53.514;10.482;2023-07-20T12:41:25;20.90;99.90
23683;DHT22;24897;53.514;10.482;2023-07-20T12:44:09;20.20;99.90
23683;DHT22;24897;53.514;10.482;2023-07-20T12:46:53;20.00;99.90
23683;DHT22;24897;53.514;10.482;2023-07-20T12:49:37;20.00;99.90
23683;DHT22;24897;53.514;10.482;2023-07-20T12:52:21;20.50;99.90
23683;DHT22;24897;53.514;10.482;2023-07-20T12:55:07;20.90;99.90
23683;DHT22;24897;53.514;10.482;2023-07-20T12:57:52;21.40;99.90
23683;DHT22;24897;53.514;10.482;2023-07-20T13:00:36;21.30;99.90
23683;DHT22;24897;53.514;10.482;2023-07-20T13:03:20;21.50;99.90
23683;DHT22;24897;53.514;10.482;2023-07-20T13:06:05;21.90;99.90
23683;DHT22;24897;53.514;10.482;2023-07-20T13:08:50;21.80;99.90
23683;DHT22;24897;53.514;10.482;2023-07-20T13:11:35;21.60;99.90
23683;DHT22;24897;53.514;10.482;2023-07-20T13:14:19;21.70;99.90
23683;DHT22;24897;53.514;10.482;2023-07-20T13:17:03;21.50;99.90
23683;DHT22;24897;53.514;10.482;2023-07-20T13:19:47;21.10;99.90
23683;DHT22;24897;53.514;10.482;2023-07-20T13:22:31;20.20;99.90
23683;DHT22;24897;53.514;10.482;2023-07-20T13:25:16;20.10;99.90
23683;DHT22;24897;53.514;10.482;2023-07-20T13:28:00;19.80;99.90
23683;DHT22;24897;53.514;10.482;2023-07-20T13:30:44;19.60;99.90
23683;DHT22;24897;53.514;10.482;2023-07-20T13:33:30;19.30;99.90
23683;DHT22;24897;53.514;10.482;2023-07-20T13:36:14;19.20;99.90
23683;DHT22;24897;53.514;10.482;2023-07-20T13:38:58;19.20;99.90
23683;DHT22;24897;53.514;10.482;2023-07-20T13:41:43;19.50;99.90
23683;DHT22;24897;53.514;10.482;2023-07-20T13:44:27;19.60;99.90
23683;DHT22;24897;53.514;10.482;2023-07-20T13:47:12;19.90;99.90
23683;DHT22;24897;53.514;10.482;2023-07-20T13:49:56;20.10;99.90
23683;DHT22;24897;53.514;10.482;2023-07-20T13:52:40;20.30;99.90
23683;DHT22;24897;53.514;10.482;2023-07-20T13:55:25;20.20;99.90
23683;DHT22;24897;53.514;10.482;2023-07-20T13:58:09;20.30;99.90
23683;DHT22;24897;53.514;10.482;2023-07-20T14:00:54;20.20;99.90
23683;DHT22;24897;53.514;10.482;2023-07-20T14:03:39;20.50;99.90
23683;DHT22;24897;53.514;10.482;2023-07-20T14:06:23;20.60;99.90
23683;DHT22;24897;53.514;10.482;2023-07-20T14:09:08;20.80;99.90
23683;DHT22;24897;53.514;10.482;2023-07-20T14:11:52;21.50;99.90
23683;DHT22;24897;53.514;10.482;2023-07-20T14:14:36;21.90;99.90
23683;DHT22;24897;53.514;10.482;2023-07-20T14:17:20;21.90;99.90
23683;DHT22;24897;53.514;10.482;2023-07-20T14:20:04;21.50;99.90
23683;DHT22;24897;53.514;10.482;2023-07-20T14:22:50;21.30;99.90
23683;DHT22;24897;53.514;10.482;2023-07-20T14:25:34;21.00;99.90
23683;DHT22;24897;53.514;10.482;2023-07-20T14:28:19;20.60;99.90
23683;DHT22;24897;53.514;10.482;2023-07-20T14:31:03;20.40;99.90
23683;DHT22;24897;53.514;10.482;2023-07-20T14:33:47;20.40;99.90
23683;DHT22;24897;53.514;10.482;2023-07-20T14:36:31;20.70;99.90
23683;DHT22;24897;53.514;10.482;2023-07-20T14:39:15;20.90;99.90
23683;DHT22;24897;53.514;10.482;2023-07-20T14:42:00;20.80;99.90
23683;DHT22;24897;53.514;10.482;2023-07-20T14:44:45;20.80;99.90
23683;DHT22;24897;53.514;10.482;2023-07-20T14:47:29;20.60;99.90
23683;DHT22;24897;53.514;10.482;2023-07-20T14:50:15;20.50;99.90
23683;DHT22;24897;53.514;10.482;2023-07-20T14:53:00;20.70;99.90
23683;DHT22;24897;53.514;10.482;2023-07-20T14:55:44;20.90;99.90
23683;DHT22;24897;53.514;10.482;2023-07-20T14:58:29;21.40;99.90
23683;DHT22;24897;53.514;10.482;2023-07-20T15:01:13;22.10;99.90
23683;DHT22;24897;53.514;10.482;2023-07-20T15:03:57;22.30;99.90
23683;DHT22;24897;53.514;10.482;2023-07-20T15:06:41;22.60;99.90
23683;DHT22;24897;53.514;10.482;2023-07-20T15:09:25;22.80;99.90
23683;DHT22;24897;53.514;10.482;2023-07-20T15:12:09;22.40;99.90
23683;DHT22;24897;53.514;10.482;2023-07-20T15:15:06;22.10;99.90
23683;DHT22;24897;53.514;10.482;2023-07-20T15:17:50;21.90;99.90
23683;DHT22;24897;53.514;10.482;2023-07-20T15:20:35;21.90;99.90
23683;DHT22;24897;53.514;10.482;2023-07-20T15:23:20;21.80;99.90
23683;DHT22;24897;53.514;10.482;2023-07-20T15:26:04;21.80;99.90
23683;DHT22;24897;53.514;10.482;2023-07-20T15:28:48;21.90;99.90
23683;DHT22;24897;53.514;10.482;2023-07-20T15:31:32;22.10;99.90
23683;DHT22;24897;53.514;10.482;2023-07-20T15:34:16;22.10;99.90
23683;DHT22;24897;53.514;10.482;2023-07-20T15:37:00;22.40;99.90
23683;DHT22;24897;53.514;10.482;2023-07-20T15:39:48;22.50;99.90
23683;DHT22;24897;53.514;10.482;2023-07-20T15:42:33;22.40;99.90
23683;DHT22;24897;53.514;10.482;2023-07-20T15:45:18;22.20;99.90
23683;DHT22;24897;53.514;10.482;2023-07-20T15:48:02;22.30;99.90
23683;DHT22;24897;53.514;10.482;2023-07-20T15:50:46;22.20;99.90
23683;DHT22;24897;53.514;10.482;2023-07-20T15:53:30;21.60;99.90
23683;DHT22;24897;53.514;10.482;2023-07-20T15:56:14;21.70;99.90
23683;DHT22;24897;53.514;10.482;2023-07-20T15:58:59;21.70;99.90
23683;DHT22;24897;53.514;10.482;2023-07-20T16:01:43;21.60;99.90
23683;DHT22;24897;53.514;10.482;2023-07-20T16:04:28;21.60;99.90
23683;DHT22;24897;53.514;10.482;2023-07-20T16:07:12;21.60;99.90
23683;DHT22;24897;53.514;10.482;2023-07-20T16:09:56;21.70;99.90
23683;DHT22;24897;53.514;10.482;2023-07-20T16:12:44;21.50;99.90
23683;DHT22;24897;53.514;10.482;2023-07-20T16:15:30;21.00;99.90
23683;DHT22;24897;53.514;10.482;2023-07-20T16:18:14;20.70;99.90
23683;DHT22;24897;53.514;10.482;2023-07-20T16:20:59;20.70;99.90
23683;DHT22;24897;53.514;10.482;2023-07-20T16:23:44;20.80;99.90
23683;DHT22;24897;53.514;10.482;2023-07-20T16:26:28;21.20;99.90
23683;DHT22;24897;53.514;10.482;2023-07-20T16:29:12;20.90;99.90
23683;DHT22;24897;53.514;10.482;2023-07-20T16:31:56;20.60;99.90
23683;DHT22;24897;53.514;10.482;2023-07-20T16:34:40;20.30;99.90
23683;DHT22;24897;53.514;10.482;2023-07-20T16:37:24;20.50;99.90
23683;DHT22;24897;53.514;10.482;2023-07-20T16:40:09;20.50;99.90
23683;DHT22;24897;53.514;10.482;2023-07-20T16:42:55;20.90;99.90
23683;DHT22;24897;53.514;10.482;2023-07-20T16:45:39;21.20;99.90
23683;DHT22;24897;53.514;10.482;2023-07-20T16:48:23;21.00;99.90
23683;DHT22;24897;53.514;10.482;2023-07-20T16:51:08;21.10;99.90
23683;DHT22;24897;53.514;10.482;2023-07-20T16:53:52;21.10;99.90
23683;DHT22;24897;53.514;10.482;2023-07-20T16:56:36;21.00;99.90
23683;DHT22;24897;53.514;10.482;2023-07-20T16:59:20;21.10;99.90
23683;DHT22;24897;53.514;10.482;2023-07-20T17:02:04;21.10;99.90
23683;DHT22;24897;53.514;10.482;2023-07-20T17:04:49;21.10;99.90
23683;DHT22;24897;53.514;10.482;2023-07-20T17:07:33;21.10;99.90
23683;DHT22;24897;53.514;10.482;2023-07-20T17:10:17;21.10;99.90
23683;DHT22;24897;53.514;10.482;2023-07-20T17:13:01;21.10;99.90
23683;DHT22;24897;53.514;10.482;2023-07-20T17:15:47;21.00;99.90
23683;DHT22;24897;53.514;10.482;2023-07-20T17:18:31;20.80;99.90
23683;DHT22;24897;53.514;10.482;2023-07-20T17:21:16;20.80;99.90